createdAt,value
2019-05-13T00:01:06.810Z,9.20
2019-05-13T00:03:33.881Z,9.30
2019-05-13T00:06:04.113Z,9.30
2019-05-13T00:08:33.997Z,9.30
2019-05-13T00:11:04.479Z,9.30
2019-05-13T00:13:34.105Z,9.30
2019-05-13T00:16:03.828Z,9.30
2019-05-13T00:18:34.028Z,9.30
2019-05-13T00:21:03.823Z,9.30
2019-05-13T00:23:33.962Z,9.30
2019-05-13T00:26:03.935Z,9.30
2019-05-13T00:28:34.264Z,9.30
2019-05-13T00:31:04.084Z,9.30
2019-05-13T00:33:34.089Z,9.30
2019-05-13T00:36:04.189Z,9.30
2019-05-13T00:38:33.833Z,9.30
2019-05-13T00:41:03.715Z,9.30
2019-05-13T00:43:34.009Z,9.30
2019-05-13T00:46:04.011Z,9.30
2019-05-13T00:48:33.729Z,9.30
2019-05-13T00:51:03.862Z,9.30
2019-05-13T00:53:35.343Z,9.30
2019-05-13T00:56:04.880Z,9.30
2019-05-13T00:58:34.335Z,9.30
2019-05-13T01:01:03.833Z,9.40
2019-05-13T01:03:33.844Z,9.40
2019-05-13T01:06:04.347Z,9.40
2019-05-13T01:08:34.026Z,9.40
2019-05-13T01:11:04.324Z,9.40
2019-05-13T01:13:34.367Z,9.50
2019-05-13T01:16:04.041Z,9.50
2019-05-13T01:18:34.015Z,9.50
2019-05-13T01:21:04.455Z,9.50
2019-05-13T01:23:34.508Z,9.50
2019-05-13T01:26:04.193Z,9.50
2019-05-13T01:28:34.519Z,9.50
2019-05-13T01:31:04.292Z,9.50
2019-05-13T01:33:35.031Z,9.50
2019-05-13T01:36:05.421Z,9.50
2019-05-13T01:38:34.948Z,9.50
2019-05-13T01:41:04.607Z,9.40
2019-05-13T01:43:34.176Z,9.40
2019-05-13T01:46:04.557Z,9.40
2019-05-13T01:48:34.012Z,9.50
2019-05-13T01:51:03.946Z,9.50
2019-05-13T01:53:33.759Z,9.40
2019-05-13T01:56:04.039Z,9.40
2019-05-13T01:58:34.088Z,9.50
2019-05-13T02:01:05.021Z,9.40
2019-05-13T02:03:34.723Z,9.40
2019-05-13T02:06:04.182Z,9.40
2019-05-13T02:08:33.869Z,9.40
2019-05-13T02:11:04.341Z,9.40
2019-05-13T02:13:34.502Z,9.40
2019-05-13T02:16:04.496Z,9.40
2019-05-13T02:18:34.370Z,9.40
2019-05-13T02:21:05.269Z,9.40
2019-05-13T02:23:35.116Z,9.40
2019-05-13T02:26:04.701Z,9.40
2019-05-13T02:28:34.383Z,9.40
2019-05-13T02:31:03.778Z,9.40
2019-05-13T02:33:34.103Z,9.40
2019-05-13T02:36:03.777Z,9.40
2019-05-13T02:38:36.410Z,9.30
2019-05-13T02:41:06.129Z,9.30
2019-05-13T02:43:35.539Z,9.20
2019-05-13T02:46:04.908Z,9.20
2019-05-13T02:48:34.373Z,9.10
2019-05-13T02:51:04.156Z,9.10
2019-05-13T02:53:33.910Z,9.00
2019-05-13T02:56:03.685Z,8.90
2019-05-13T02:58:33.911Z,8.90
2019-05-13T03:01:03.823Z,9.00
2019-05-13T03:03:33.367Z,8.90
2019-05-13T03:06:03.247Z,8.90
2019-05-13T03:08:41.182Z,8.90
2019-05-13T03:11:03.884Z,8.90
2019-05-13T03:13:33.359Z,8.90
2019-05-13T03:16:13.265Z,8.90
2019-05-13T03:18:43.874Z,8.90
2019-05-13T03:21:13.485Z,9.00
2019-05-13T03:23:44.247Z,9.00
2019-05-13T03:26:14.017Z,9.00
2019-05-13T03:28:44.153Z,9.00
2019-05-13T03:31:16.846Z,9.00
2019-05-13T03:33:47.149Z,9.00
2019-05-13T03:36:17.768Z,9.00
2019-05-13T03:39:01.887Z,9.00
2019-05-13T03:41:18.884Z,9.10
2019-05-13T03:43:52.422Z,9.10
2019-05-13T03:46:23.089Z,9.10
2019-05-13T03:48:55.043Z,9.00
2019-05-13T03:51:24.521Z,9.00
2019-05-13T03:53:53.925Z,9.00
2019-05-13T03:56:24.075Z,9.00
2019-05-13T03:58:54.316Z,9.10
2019-05-13T04:01:24.112Z,9.10
2019-05-13T04:03:53.549Z,9.10
2019-05-13T04:06:23.675Z,9.10
2019-05-13T04:08:54.173Z,9.10
2019-05-13T04:11:23.977Z,9.10
2019-05-13T04:13:53.531Z,9.10
2019-05-13T04:16:23.940Z,9.10
2019-05-13T04:18:53.998Z,9.10
2019-05-13T04:21:23.597Z,9.10
2019-05-13T04:23:53.593Z,9.10
2019-05-13T04:26:23.840Z,9.10
2019-05-13T04:28:53.738Z,9.00
2019-05-13T04:31:23.264Z,9.10
2019-05-13T04:33:53.901Z,9.10
2019-05-13T04:36:23.838Z,9.00
2019-05-13T04:38:53.569Z,9.10
2019-05-13T04:41:23.438Z,9.00
2019-05-13T04:43:54.088Z,9.00
2019-05-13T04:46:23.940Z,9.00
2019-05-13T04:48:53.491Z,9.00
2019-05-13T04:51:23.076Z,9.00
2019-05-13T04:53:56.829Z,8.90
2019-05-13T04:56:23.775Z,8.90
2019-05-13T04:58:53.215Z,8.90
2019-05-13T05:02:13.455Z,8.90
2019-05-13T05:05:05.227Z,8.90
2019-05-13T05:08:15.902Z,8.90
2019-05-13T05:11:14.590Z,8.90
2019-05-13T05:14:32.582Z,8.90
2019-05-13T05:17:38.382Z,9.00
2019-05-13T05:20:17.628Z,9.00
2019-05-13T05:23:02.998Z,9.00
2019-05-13T05:25:55.753Z,9.00
2019-05-13T05:28:54.929Z,9.00
2019-05-13T05:31:54.241Z,9.00
2019-05-13T05:34:56.212Z,8.90
2019-05-13T05:38:02.937Z,8.90
2019-05-13T05:40:34.761Z,9.00
2019-05-13T05:43:05.328Z,9.00
2019-05-13T05:45:37.741Z,9.00
2019-05-13T05:48:08.160Z,9.00
2019-05-13T05:50:38.985Z,9.00
2019-05-13T05:53:11.148Z,9.00
2019-05-13T05:55:42.505Z,9.00
2019-05-13T05:58:14.310Z,9.00
2019-05-13T06:00:44.309Z,9.00
2019-05-13T06:03:14.091Z,9.00
2019-05-13T06:05:43.868Z,9.00
2019-05-13T06:08:13.279Z,9.00
2019-05-13T06:10:49.900Z,9.00
2019-05-13T06:13:14.570Z,9.00
2019-05-13T06:15:43.890Z,9.00
2019-05-13T06:18:13.174Z,9.00
2019-05-13T06:20:42.528Z,9.00
2019-05-13T06:23:11.833Z,9.00
2019-05-13T06:25:42.765Z,9.00
2019-05-13T06:28:12.552Z,9.00
2019-05-13T06:30:42.156Z,9.00
2019-05-13T06:33:12.152Z,9.00
2019-05-13T06:35:44.720Z,9.10
2019-05-13T06:38:13.017Z,9.10
2019-05-13T06:40:42.588Z,9.10
2019-05-13T06:43:12.141Z,9.10
2019-05-13T06:45:42.162Z,9.10
2019-05-13T06:48:12.848Z,9.20
2019-05-13T06:50:42.185Z,9.20
2019-05-13T06:53:12.676Z,9.20
2019-05-13T06:55:42.285Z,9.20
2019-05-13T06:58:11.633Z,9.30
2019-05-13T07:00:42.789Z,9.30
2019-05-13T07:03:12.825Z,9.30
2019-05-13T07:05:42.614Z,9.30
2019-05-13T07:08:12.242Z,9.40
2019-05-13T07:10:41.779Z,9.40
2019-05-13T07:13:11.602Z,9.40
2019-05-13T07:15:41.733Z,9.50
2019-05-13T07:18:11.884Z,9.50
2019-05-13T07:20:42.591Z,9.50
2019-05-13T07:23:12.490Z,9.50
2019-05-13T07:25:42.210Z,9.60
2019-05-13T07:28:12.629Z,9.60
2019-05-13T07:30:43.724Z,9.60
2019-05-13T07:33:13.188Z,9.70
2019-05-13T07:35:44.826Z,9.70
2019-05-13T07:38:13.819Z,9.70
2019-05-13T07:40:43.337Z,9.80
2019-05-13T07:43:12.754Z,9.70
2019-05-13T07:45:42.550Z,9.80
2019-05-13T07:48:20.983Z,9.80
2019-05-13T07:50:53.229Z,9.80
2019-05-13T07:53:18.804Z,9.80
2019-05-13T07:55:45.302Z,9.90
2019-05-13T07:58:14.675Z,9.90
2019-05-13T08:00:44.010Z,9.90
2019-05-13T08:03:13.381Z,10.00
2019-05-13T08:05:42.853Z,10.00
2019-05-13T08:08:12.168Z,10.00
2019-05-13T08:10:42.200Z,10.00
2019-05-13T08:13:12.101Z,10.00
2019-05-13T08:15:42.285Z,10.00
2019-05-13T08:18:12.435Z,10.00
2019-05-13T08:20:42.245Z,10.10
2019-05-13T08:23:12.218Z,10.10
2019-05-13T08:25:42.513Z,10.10
2019-05-13T08:28:12.581Z,10.10
2019-05-13T08:30:42.889Z,10.20
2019-05-13T08:33:12.917Z,10.20
2019-05-13T08:35:47.046Z,10.20
2019-05-13T08:38:13.708Z,10.20
2019-05-13T08:40:43.141Z,10.20
2019-05-13T08:43:13.049Z,10.20
2019-05-13T08:45:42.777Z,10.30
2019-05-13T08:48:12.925Z,10.30
2019-05-13T08:50:42.965Z,10.30
2019-05-13T08:53:12.469Z,10.30
2019-05-13T08:55:42.817Z,10.40
2019-05-13T08:58:12.893Z,10.40
2019-05-13T09:01:07.418Z,10.50
2019-05-13T09:03:36.774Z,10.50
2019-05-13T09:06:06.182Z,10.50
2019-05-13T09:08:35.613Z,10.60
2019-05-13T09:11:04.936Z,10.60
2019-05-13T09:13:34.366Z,10.60
2019-05-13T09:16:03.874Z,10.70
2019-05-13T09:18:33.242Z,10.70
2019-05-13T09:21:02.819Z,10.70
2019-05-13T09:23:32.505Z,10.80
2019-05-13T09:26:02.707Z,10.90
2019-05-13T09:28:32.641Z,10.90
2019-05-13T09:31:02.314Z,10.90
2019-05-13T09:33:32.712Z,10.90
2019-05-13T09:36:02.491Z,11.00
2019-05-13T09:38:32.747Z,11.00
2019-05-13T09:41:02.398Z,11.10
2019-05-13T09:43:31.798Z,11.10
2019-05-13T09:46:02.389Z,11.10
2019-05-13T09:48:32.164Z,11.10
2019-05-13T09:51:02.414Z,11.00
2019-05-13T09:53:32.680Z,11.10
2019-05-13T09:56:02.664Z,11.10
2019-05-13T09:58:33.089Z,11.10
2019-05-13T10:01:02.897Z,11.10
2019-05-13T10:03:33.260Z,11.20
2019-05-13T10:06:12.796Z,11.20
2019-05-13T10:08:42.360Z,11.30
2019-05-13T10:11:12.425Z,11.30
2019-05-13T10:13:41.981Z,11.30
2019-05-13T10:16:12.425Z,11.40
2019-05-13T10:18:42.487Z,11.40
2019-05-13T10:21:11.986Z,11.50
2019-05-13T10:23:42.129Z,11.40
2019-05-13T10:26:13.957Z,11.40
2019-05-13T10:28:43.707Z,11.50
2019-05-13T10:31:13.107Z,11.50
2019-05-13T10:33:42.538Z,11.50
2019-05-13T10:36:12.239Z,11.60
2019-05-13T10:38:41.950Z,11.60
2019-05-13T10:41:11.933Z,11.60
2019-05-13T10:43:44.170Z,11.50
2019-05-13T10:46:12.983Z,11.50
2019-05-13T10:48:42.442Z,11.50
2019-05-13T10:51:13.050Z,11.40
2019-05-13T10:53:42.922Z,11.40
2019-05-13T10:56:12.416Z,11.40
2019-05-13T10:58:42.881Z,11.40
2019-05-13T11:01:12.396Z,11.30
2019-05-13T11:03:42.811Z,11.40
2019-05-13T11:06:12.490Z,11.40
2019-05-13T11:08:42.345Z,11.40
2019-05-13T11:11:12.998Z,11.40
2019-05-13T11:13:55.189Z,11.50
2019-05-13T11:16:14.133Z,11.50
2019-05-13T11:18:43.555Z,11.50
2019-05-13T11:21:13.254Z,11.50
2019-05-13T11:23:42.777Z,11.50
2019-05-13T11:26:12.908Z,11.40
2019-05-13T11:28:43.395Z,11.40
2019-05-13T11:31:12.842Z,11.40
2019-05-13T11:33:42.599Z,11.50
2019-05-13T11:36:12.877Z,11.50
2019-05-13T11:38:43.447Z,11.60
2019-05-13T11:41:12.972Z,11.60
2019-05-13T11:43:42.635Z,11.70
2019-05-13T11:46:12.066Z,11.70
2019-05-13T11:48:42.562Z,11.70
2019-05-13T11:51:13.121Z,11.70
2019-05-13T11:53:42.781Z,11.80
2019-05-13T11:56:12.280Z,11.80
2019-05-13T11:58:43.195Z,11.90
2019-05-13T12:01:12.705Z,12.00
2019-05-13T12:03:43.486Z,12.00
2019-05-13T12:06:13.629Z,12.00
2019-05-13T12:08:50.631Z,12.00
2019-05-13T12:11:14.317Z,12.10
2019-05-13T12:13:43.822Z,12.10
2019-05-13T12:16:13.230Z,12.10
2019-05-13T12:18:43.776Z,12.10
2019-05-13T12:21:13.348Z,12.00
2019-05-13T12:23:42.913Z,12.10
2019-05-13T12:26:13.132Z,12.10
2019-05-13T12:28:42.535Z,12.10
2019-05-13T12:31:12.300Z,12.10
2019-05-13T12:33:43.975Z,12.10
2019-05-13T12:36:17.915Z,12.00
2019-05-13T12:38:44.459Z,12.10
2019-05-13T12:41:14.043Z,12.10
2019-05-13T12:43:43.945Z,12.10
2019-05-13T12:46:13.326Z,12.20
2019-05-13T12:48:42.702Z,12.20
2019-05-13T12:51:13.334Z,12.20
2019-05-13T12:53:43.622Z,12.20
2019-05-13T12:56:13.215Z,12.20
2019-05-13T12:58:42.605Z,12.30
2019-05-13T13:01:12.794Z,12.30
2019-05-13T13:03:42.404Z,12.30
2019-05-13T13:06:29.965Z,12.30
2019-05-13T13:08:48.570Z,12.30
2019-05-13T13:11:14.017Z,12.30
2019-05-13T13:13:58.245Z,12.20
2019-05-13T13:16:14.513Z,12.20
2019-05-13T13:18:43.986Z,12.20
2019-05-13T13:21:14.338Z,12.20
2019-05-13T13:23:44.134Z,12.30
2019-05-13T13:26:15.909Z,12.30
2019-05-13T13:28:44.662Z,12.30
2019-05-13T13:31:14.013Z,12.30
2019-05-13T13:33:44.485Z,12.30
2019-05-13T13:36:16.129Z,12.30
2019-05-13T13:38:45.541Z,12.30
2019-05-13T13:41:22.262Z,12.30
2019-05-13T13:43:46.012Z,12.20
2019-05-13T13:46:33.750Z,12.20
2019-05-13T13:48:46.465Z,12.20
2019-05-13T13:51:15.814Z,12.20
2019-05-13T13:53:45.200Z,12.20
2019-05-13T13:56:15.180Z,12.20
2019-05-13T13:58:44.730Z,12.30
2019-05-13T14:01:20.080Z,12.30
2019-05-13T14:03:46.276Z,12.40
2019-05-13T14:07:12.996Z,12.40
2019-05-13T14:08:47.169Z,12.40
2019-05-13T14:11:16.487Z,12.40
2019-05-13T14:13:45.845Z,12.40
2019-05-13T14:16:28.556Z,12.40
2019-05-13T14:18:46.283Z,12.30
2019-05-13T14:21:15.669Z,12.30
2019-05-13T14:23:45.099Z,12.30
2019-05-13T14:26:14.478Z,12.30
2019-05-13T14:28:43.917Z,12.30
2019-05-13T14:31:13.475Z,12.30
2019-05-13T14:33:43.021Z,12.30
2019-05-13T14:36:12.526Z,12.20
2019-05-13T14:38:42.004Z,12.20
2019-05-13T14:41:12.422Z,12.20
2019-05-13T14:43:42.065Z,12.20
2019-05-13T14:46:12.629Z,12.20
2019-05-13T14:48:43.354Z,12.10
2019-05-13T14:51:12.942Z,12.10
2019-05-13T14:53:42.368Z,12.00
2019-05-13T14:56:14.297Z,12.00
2019-05-13T14:58:42.833Z,12.00
2019-05-13T15:01:18.451Z,11.90
2019-05-13T15:03:43.316Z,11.90
2019-05-13T15:06:12.749Z,11.90
2019-05-13T15:08:42.333Z,11.90
2019-05-13T15:11:12.609Z,11.90
2019-05-13T15:13:42.691Z,11.90
2019-05-13T15:16:12.160Z,11.90
2019-05-13T15:18:41.871Z,11.90
2019-05-13T15:21:12.133Z,11.90
2019-05-13T15:23:42.347Z,11.90
2019-05-13T15:26:12.005Z,11.90
2019-05-13T15:28:42.189Z,11.90
2019-05-13T15:31:11.908Z,11.80
2019-05-13T15:33:41.698Z,11.80
2019-05-13T15:36:11.919Z,11.90
2019-05-13T15:38:41.672Z,11.80
2019-05-13T15:41:15.320Z,11.80
2019-05-13T15:43:42.568Z,11.70
2019-05-13T15:46:12.689Z,11.70
2019-05-13T15:48:42.388Z,11.70
2019-05-13T15:51:11.755Z,11.70
2019-05-13T15:53:43.568Z,11.60
2019-05-13T15:56:12.600Z,11.50
2019-05-13T15:58:44.530Z,11.50
2019-05-13T16:01:13.243Z,11.50
2019-05-13T16:03:42.642Z,11.40
2019-05-13T16:06:12.022Z,11.40
2019-05-13T16:08:43.288Z,11.30
2019-05-13T16:11:12.653Z,11.30
2019-05-13T16:13:42.434Z,11.30
2019-05-13T16:16:12.244Z,11.30
2019-05-13T16:18:42.101Z,11.30
2019-05-13T16:21:12.203Z,11.20
2019-05-13T16:23:42.813Z,11.30
2019-05-13T16:26:12.516Z,11.30
2019-05-13T16:28:42.158Z,11.20
2019-05-13T16:31:11.936Z,11.20
2019-05-13T16:33:41.799Z,11.20
2019-05-13T16:36:12.676Z,11.10
2019-05-13T16:38:42.415Z,11.00
2019-05-13T16:41:12.664Z,11.00
2019-05-13T16:43:42.737Z,10.90
2019-05-13T16:46:12.421Z,10.90
2019-05-13T16:48:41.878Z,10.90
2019-05-13T16:51:12.392Z,10.90
2019-05-13T16:53:42.557Z,10.90
2019-05-13T16:56:25.634Z,10.80
2019-05-13T16:58:43.207Z,10.80
2019-05-13T17:01:12.661Z,10.80
2019-05-13T17:03:42.051Z,10.70
2019-05-13T17:06:12.704Z,10.70
2019-05-13T17:08:42.555Z,10.60
2019-05-13T17:11:12.067Z,10.60
2019-05-13T17:13:42.356Z,10.50
2019-05-13T17:16:12.063Z,10.50
2019-05-13T17:18:41.860Z,10.50
2019-05-13T17:21:11.401Z,10.40
2019-05-13T17:23:41.828Z,10.40
2019-05-13T17:26:11.694Z,10.30
2019-05-13T17:28:41.708Z,10.30
2019-05-13T17:31:11.642Z,10.30
2019-05-13T17:33:41.184Z,10.30
2019-05-13T17:36:12.277Z,10.30
2019-05-13T17:38:41.636Z,10.30
2019-05-13T17:41:12.217Z,10.30
2019-05-13T17:43:41.739Z,10.20
2019-05-13T17:46:11.162Z,10.20
2019-05-13T17:48:41.672Z,10.20
2019-05-13T17:51:13.107Z,10.20
2019-05-13T17:53:42.288Z,10.10
2019-05-13T17:56:11.699Z,10.10
2019-05-13T17:58:42.063Z,10.10
2019-05-13T18:01:12.146Z,10.10
2019-05-13T18:03:41.609Z,10.00
2019-05-13T18:06:11.487Z,10.00
2019-05-13T18:08:41.693Z,10.00
2019-05-13T18:11:11.490Z,10.00
2019-05-13T18:13:43.637Z,9.90
2019-05-13T18:16:12.552Z,9.90
2019-05-13T18:18:46.895Z,9.90
2019-05-13T18:21:13.299Z,9.90
2019-05-13T18:23:43.463Z,9.80
2019-05-13T18:26:16.060Z,9.80
2019-05-13T18:28:43.983Z,9.80
2019-05-13T18:31:13.387Z,9.80
2019-05-13T18:33:42.701Z,9.80
2019-05-13T18:36:12.144Z,9.70
2019-05-13T18:38:41.858Z,9.60
2019-05-13T18:41:12.008Z,9.60
2019-05-13T18:43:41.680Z,9.60
2019-05-13T18:46:12.410Z,9.60
2019-05-13T18:48:57.393Z,9.60
2019-05-13T18:51:13.058Z,9.50
2019-05-13T18:53:42.475Z,9.60
2019-05-13T18:56:12.464Z,9.50
2019-05-13T18:58:42.547Z,9.50
2019-05-13T19:01:11.893Z,9.50
2019-05-13T19:03:41.861Z,9.50
2019-05-13T19:06:11.763Z,9.50
2019-05-13T19:08:41.496Z,9.50
2019-05-13T19:11:11.772Z,9.50
2019-05-13T19:13:41.797Z,9.50
2019-05-13T19:16:11.851Z,9.40
2019-05-13T19:18:42.256Z,9.50
2019-05-13T19:21:11.756Z,9.50
2019-05-13T19:23:41.889Z,9.50
2019-05-13T19:26:11.585Z,9.50
2019-05-13T19:28:41.051Z,9.50
2019-05-13T19:31:11.551Z,9.40
2019-05-13T19:33:41.624Z,9.40
2019-05-13T19:36:11.788Z,9.40
2019-05-13T19:38:42.248Z,9.40
2019-05-13T19:41:11.831Z,9.40
2019-05-13T19:43:42.045Z,9.40
2019-05-13T19:46:11.626Z,9.40
2019-05-13T19:48:41.737Z,9.40
2019-05-13T19:51:11.458Z,9.30
2019-05-13T19:53:42.127Z,9.30
2019-05-13T19:56:12.038Z,9.40
2019-05-13T19:58:41.394Z,9.30
2019-05-13T20:01:11.674Z,9.30
2019-05-13T20:03:42.277Z,9.30
2019-05-13T20:06:12.351Z,9.30
2019-05-13T20:08:41.858Z,9.30
2019-05-13T20:11:11.659Z,9.40
2019-05-13T20:13:41.764Z,9.30
2019-05-13T20:16:11.816Z,9.40
2019-05-13T20:18:41.640Z,9.30
2019-05-13T20:21:13.400Z,9.40
2019-05-13T20:23:42.065Z,9.30
2019-05-13T20:26:11.432Z,9.30
2019-05-13T20:28:41.986Z,9.30
2019-05-13T20:31:11.414Z,9.30
2019-05-13T20:33:42.850Z,9.30
2019-05-13T20:36:11.963Z,9.30
2019-05-13T20:38:41.465Z,9.30
2019-05-13T20:41:11.652Z,9.30
2019-05-13T20:43:42.474Z,9.30
2019-05-13T20:46:12.121Z,9.30
2019-05-13T20:48:41.548Z,9.20
2019-05-13T20:51:11.341Z,9.30
2019-05-13T20:53:41.241Z,9.20
2019-05-13T20:56:10.775Z,9.20
2019-05-13T20:58:42.022Z,9.20
2019-05-13T21:01:11.255Z,9.20
2019-05-13T21:03:41.982Z,9.20
2019-05-13T21:06:11.757Z,9.20
2019-05-13T21:08:41.612Z,9.20
2019-05-13T21:11:11.566Z,9.10
2019-05-13T21:13:41.296Z,9.10
2019-05-13T21:16:11.416Z,9.10
2019-05-13T21:18:42.050Z,9.10
2019-05-13T21:21:11.946Z,9.00
2019-05-13T21:23:41.814Z,9.00
2019-05-13T21:26:15.296Z,8.90
2019-05-13T21:28:42.614Z,8.90
2019-05-13T21:31:11.920Z,8.80
2019-05-13T21:33:41.266Z,8.80
2019-05-13T21:36:12.253Z,8.80
2019-05-13T21:38:41.880Z,8.80
2019-05-13T21:41:11.761Z,8.80
2019-05-13T21:43:41.548Z,8.80
2019-05-13T21:46:12.094Z,8.80
2019-05-13T21:48:41.769Z,8.80
2019-05-13T21:51:13.392Z,8.70
2019-05-13T21:53:42.186Z,8.70
2019-05-13T21:56:12.168Z,8.70
2019-05-13T21:58:41.790Z,8.70
2019-05-13T22:01:11.134Z,8.70
2019-05-13T22:03:42.071Z,8.70
2019-05-13T22:06:11.949Z,8.70
2019-05-13T22:08:41.370Z,8.70
2019-05-13T22:11:12.093Z,8.70
2019-05-13T22:13:41.924Z,8.70
2019-05-13T22:16:11.647Z,8.70
2019-05-13T22:18:41.800Z,8.70
2019-05-13T22:21:11.931Z,8.70
2019-05-13T22:23:41.521Z,8.70
2019-05-13T22:26:11.692Z,8.70
2019-05-13T22:28:41.743Z,8.60
2019-05-13T22:31:11.678Z,8.60
2019-05-13T22:33:41.363Z,8.60
2019-05-13T22:36:11.806Z,8.60
2019-05-13T22:38:42.636Z,8.60
2019-05-13T22:41:12.189Z,8.60
2019-05-13T22:43:54.684Z,8.60
2019-05-13T22:46:14.185Z,8.60
2019-05-13T22:48:43.795Z,8.60
2019-05-13T22:51:13.152Z,8.60
2019-05-13T22:53:42.554Z,8.60
2019-05-13T22:56:11.868Z,8.60
2019-05-13T22:58:41.309Z,8.60
2019-05-13T23:01:11.523Z,8.60
2019-05-13T23:03:41.317Z,8.60
2019-05-13T23:06:12.132Z,8.60
2019-05-13T23:08:41.525Z,8.60
2019-05-13T23:11:10.926Z,8.60
2019-05-13T23:13:42.183Z,8.60
2019-05-13T23:16:11.593Z,8.60
2019-05-13T23:18:42.093Z,8.60
2019-05-13T23:21:11.623Z,8.60
2019-05-13T23:23:40.996Z,8.60
2019-05-13T23:26:11.938Z,8.60
2019-05-13T23:28:41.707Z,8.60
2019-05-13T23:31:12.358Z,8.60
2019-05-13T23:33:41.799Z,8.60
2019-05-13T23:36:12.024Z,8.60
2019-05-13T23:38:41.672Z,8.60
2019-05-13T23:41:11.612Z,8.60
2019-05-13T23:43:41.013Z,8.60
2019-05-13T23:46:11.767Z,8.60
2019-05-13T23:48:41.979Z,8.60
2019-05-13T23:51:12.950Z,8.70
2019-05-13T23:53:42.549Z,8.60
2019-05-13T23:56:11.959Z,8.60
2019-05-13T23:58:41.471Z,8.60
